sensor_id;sensor_type;location;lat;lon;timestamp;temperature;humidity
28460;DHT22;32528;45.712;9.192;2023-02-28T00:00:41;6.40;96.50
28460;DHT22;32528;45.712;9.192;2023-02-28T00:02:43;6.40;96.00
28460;DHT22;32528;45.712;9.192;2023-02-28T00:04:44;6.40;95.40
28460;DHT22;32528;45.712;9.192;2023-02-28T00:06:44;6.50;95.10
28460;DHT22;32528;45.712;9.192;2023-02-28T00:08:45;6.40;95.00
28460;DHT22;32528;45.712;9.192;2023-02-28T00:10:46;6.40;94.80
28460;DHT22;32528;45.712;9.192;2023-02-28T00:12:47;6.50;95.00
28460;DHT22;32528;45.712;9.192;2023-02-28T00:14:49;6.50;95.20
28460;DHT22;32528;45.712;9.192;2023-02-28T00:16:49;6.40;95.30
28460;DHT22;32528;45.712;9.192;2023-02-28T00:18:50;6.40;95.20
28460;DHT22;32528;45.712;9.192;2023-02-28T00:20:51;6.40;95.40
28460;DHT22;32528;45.712;9.192;2023-02-28T00:22:52;6.40;95.50
28460;DHT22;32528;45.712;9.192;2023-02-28T00:24:53;6.30;95.40
28460;DHT22;32528;45.712;9.192;2023-02-28T00:26:54;6.40;95.60
28460;DHT22;32528;45.712;9.192;2023-02-28T00:28:54;6.40;95.70
28460;DHT22;32528;45.712;9.192;2023-02-28T00:30:57;6.40;95.90
28460;DHT22;32528;45.712;9.192;2023-02-28T00:32:58;6.30;96.00
28460;DHT22;32528;45.712;9.192;2023-02-28T00:34:59;6.30;96.10
28460;DHT22;32528;45.712;9.192;2023-02-28T00:37:00;6.20;96.10
28460;DHT22;32528;45.712;9.192;2023-02-28T00:39:01;6.20;96.20
28460;DHT22;32528;45.712;9.192;2023-02-28T00:41:02;6.20;96.40
28460;DHT22;32528;45.712;9.192;2023-02-28T00:43:04;6.30;96.60
28460;DHT22;32528;45.712;9.192;2023-02-28T00:45:06;6.30;96.50
28460;DHT22;32528;45.712;9.192;2023-02-28T00:47:06;6.30;96.60
28460;DHT22;32528;45.712;9.192;2023-02-28T00:49:07;6.30;96.50
28460;DHT22;32528;45.712;9.192;2023-02-28T00:51:10;6.30;96.70
28460;DHT22;32528;45.712;9.192;2023-02-28T00:53:10;6.40;96.70
28460;DHT22;32528;45.712;9.192;2023-02-28T00:55:11;6.40;97.10
28460;DHT22;32528;45.712;9.192;2023-02-28T00:57:12;6.40;97.20
28460;DHT22;32528;45.712;9.192;2023-02-28T00:59:15;6.40;96.90
28460;DHT22;32528;45.712;9.192;2023-02-28T01:01:16;6.40;96.90
28460;DHT22;32528;45.712;9.192;2023-02-28T01:03:19;6.40;96.80
28460;DHT22;32528;45.712;9.192;2023-02-28T01:05:20;6.30;97.00
28460;DHT22;32528;45.712;9.192;2023-02-28T01:07:21;6.30;97.20
28460;DHT22;32528;45.712;9.192;2023-02-28T01:09:21;6.20;97.50
28460;DHT22;32528;45.712;9.192;2023-02-28T01:11:22;6.20;97.40
28460;DHT22;32528;45.712;9.192;2023-02-28T01:13:23;6.20;97.90
28460;DHT22;32528;45.712;9.192;2023-02-28T01:15:25;6.20;97.70
28460;DHT22;32528;45.712;9.192;2023-02-28T01:17:26;6.10;97.80
28460;DHT22;32528;45.712;9.192;2023-02-28T01:19:27;6.20;97.80
28460;DHT22;32528;45.712;9.192;2023-02-28T01:21:28;6.10;98.00
28460;DHT22;32528;45.712;9.192;2023-02-28T01:23:30;6.10;97.80
28460;DHT22;32528;45.712;9.192;2023-02-28T01:25:30;6.10;98.00
28460;DHT22;32528;45.712;9.192;2023-02-28T01:27:31;6.10;98.30
28460;DHT22;32528;45.712;9.192;2023-02-28T01:29:32;6.20;98.50
28460;DHT22;32528;45.712;9.192;2023-02-28T01:31:33;6.10;98.50
28460;DHT22;32528;45.712;9.192;2023-02-28T01:33:34;6.00;98.70
28460;DHT22;32528;45.712;9.192;2023-02-28T01:35:35;6.00;98.60
28460;DHT22;32528;45.712;9.192;2023-02-28T01:37:36;6.10;98.30
28460;DHT22;32528;45.712;9.192;2023-02-28T01:39:37;6.10;98.30
28460;DHT22;32528;45.712;9.192;2023-02-28T01:41:38;6.10;98.10
28460;DHT22;32528;45.712;9.192;2023-02-28T01:45:42;6.10;98.70
28460;DHT22;32528;45.712;9.192;2023-02-28T01:47:43;6.10;98.80
28460;DHT22;32528;45.712;9.192;2023-02-28T01:49:44;6.10;98.30
28460;DHT22;32528;45.712;9.192;2023-02-28T01:51:45;5.90;97.30
28460;DHT22;32528;45.712;9.192;2023-02-28T01:53:51;5.90;97.40
28460;DHT22;32528;45.712;9.192;2023-02-28T01:55:53;5.90;97.50
28460;DHT22;32528;45.712;9.192;2023-02-28T01:57:55;5.80;97.40
28460;DHT22;32528;45.712;9.192;2023-02-28T02:00:09;5.70;97.00
28460;DHT22;32528;45.712;9.192;2023-02-28T02:02:14;5.70;97.00
28460;DHT22;32528;45.712;9.192;2023-02-28T02:04:15;5.80;96.90
28460;DHT22;32528;45.712;9.192;2023-02-28T02:06:19;5.80;96.50
28460;DHT22;32528;45.712;9.192;2023-02-28T02:08:23;5.80;96.10
28460;DHT22;32528;45.712;9.192;2023-02-28T02:10:55;5.80;96.00
28460;DHT22;32528;45.712;9.192;2023-02-28T02:17:49;5.90;96.50
28460;DHT22;32528;45.712;9.192;2023-02-28T02:25:19;5.90;96.80
28460;DHT22;32528;45.712;9.192;2023-02-28T02:30:20;5.90;97.20
28460;DHT22;32528;45.712;9.192;2023-02-28T02:37:22;5.80;97.90
28460;DHT22;32528;45.712;9.192;2023-02-28T02:39:32;5.70;98.00
28460;DHT22;32528;45.712;9.192;2023-02-28T02:41:44;5.70;98.30
28460;DHT22;32528;45.712;9.192;2023-02-28T02:44:20;5.60;98.60
28460;DHT22;32528;45.712;9.192;2023-02-28T02:46:32;5.50;98.70
28460;DHT22;32528;45.712;9.192;2023-02-28T02:48:35;5.50;98.80
28460;DHT22;32528;45.712;9.192;2023-02-28T02:50:42;5.50;98.80
28460;DHT22;32528;45.712;9.192;2023-02-28T02:52:49;5.50;99.10
28460;DHT22;32528;45.712;9.192;2023-02-28T02:54:54;5.50;99.60
28460;DHT22;32528;45.712;9.192;2023-02-28T02:57:02;5.50;99.80
28460;DHT22;32528;45.712;9.192;2023-02-28T02:59:07;5.50;99.60
28460;DHT22;32528;45.712;9.192;2023-02-28T03:01:12;5.50;99.80
28460;DHT22;32528;45.712;9.192;2023-02-28T03:03:16;5.40;99.80
28460;DHT22;32528;45.712;9.192;2023-02-28T03:05:27;5.40;99.80
28460;DHT22;32528;45.712;9.192;2023-02-28T03:07:30;5.40;99.90
28460;DHT22;32528;45.712;9.192;2023-02-28T03:09:33;5.40;99.90
28460;DHT22;32528;45.712;9.192;2023-02-28T03:11:37;5.30;99.90
28460;DHT22;32528;45.712;9.192;2023-02-28T03:18:10;5.20;99.90
28460;DHT22;32528;45.712;9.192;2023-02-28T03:22:59;5.30;99.90
28460;DHT22;32528;45.712;9.192;2023-02-28T03:25:20;5.30;99.90
28460;DHT22;32528;45.712;9.192;2023-02-28T03:27:26;5.20;99.90
28460;DHT22;32528;45.712;9.192;2023-02-28T03:29:37;5.20;99.90
28460;DHT22;32528;45.712;9.192;2023-02-28T03:31:52;5.20;99.90
28460;DHT22;32528;45.712;9.192;2023-02-28T03:36:16;5.20;99.90
28460;DHT22;32528;45.712;9.192;2023-02-28T03:38:34;5.30;99.90
28460;DHT22;32528;45.712;9.192;2023-02-28T03:40:37;5.20;99.90
28460;DHT22;32528;45.712;9.192;2023-02-28T03:42:41;5.30;99.90
28460;DHT22;32528;45.712;9.192;2023-02-28T03:44:47;5.20;99.90
28460;DHT22;32528;45.712;9.192;2023-02-28T03:46:58;5.20;99.90
28460;DHT22;32528;45.712;9.192;2023-02-28T03:49:08;5.20;99.90
28460;DHT22;32528;45.712;9.192;2023-02-28T03:51:15;5.20;99.90
28460;DHT22;32528;45.712;9.192;2023-02-28T03:55:37;5.20;99.90
28460;DHT22;32528;45.712;9.192;2023-02-28T03:57:52;5.20;99.90
28460;DHT22;32528;45.712;9.192;2023-02-28T04:00:04;5.20;99.90
28460;DHT22;32528;45.712;9.192;2023-02-28T04:02:12;5.20;99.90
28460;DHT22;32528;45.712;9.192;2023-02-28T04:04:15;5.40;99.90
28460;DHT22;32528;45.712;9.192;2023-02-28T04:06:19;5.60;99.90
28460;DHT22;32528;45.712;9.192;2023-02-28T04:08:21;5.60;99.90
28460;DHT22;32528;45.712;9.192;2023-02-28T04:10:22;5.50;99.90
28460;DHT22;32528;45.712;9.192;2023-02-28T04:12:23;5.40;99.90
28460;DHT22;32528;45.712;9.192;2023-02-28T04:14:26;5.40;99.90
28460;DHT22;32528;45.712;9.192;2023-02-28T04:16:27;5.40;99.90
28460;DHT22;32528;45.712;9.192;2023-02-28T04:18:28;5.20;99.90
28460;DHT22;32528;45.712;9.192;2023-02-28T04:20:28;5.40;99.90
28460;DHT22;32528;45.712;9.192;2023-02-28T04:22:29;5.40;99.90
28460;DHT22;32528;45.712;9.192;2023-02-28T04:24:30;5.40;99.90
28460;DHT22;32528;45.712;9.192;2023-02-28T04:26:36;5.20;99.90
28460;DHT22;32528;45.712;9.192;2023-02-28T04:28:37;5.20;99.90
28460;DHT22;32528;45.712;9.192;2023-02-28T04:30:38;5.20;99.90
28460;DHT22;32528;45.712;9.192;2023-02-28T04:32:39;5.30;99.90
28460;DHT22;32528;45.712;9.192;2023-02-28T04:34:40;5.30;99.90
28460;DHT22;32528;45.712;9.192;2023-02-28T04:36:41;5.20;99.90
28460;DHT22;32528;45.712;9.192;2023-02-28T04:38:44;5.30;99.90
28460;DHT22;32528;45.712;9.192;2023-02-28T04:40:45;5.20;99.90
28460;DHT22;32528;45.712;9.192;2023-02-28T04:42:46;5.30;99.90
28460;DHT22;32528;45.712;9.192;2023-02-28T04:44:46;5.20;99.90
28460;DHT22;32528;45.712;9.192;2023-02-28T04:46:48;5.20;99.90
28460;DHT22;32528;45.712;9.192;2023-02-28T04:48:49;5.10;99.90
28460;DHT22;32528;45.712;9.192;2023-02-28T04:50:50;5.10;99.90
28460;DHT22;32528;45.712;9.192;2023-02-28T04:52:51;5.10;99.90
28460;DHT22;32528;45.712;9.192;2023-02-28T04:54:52;5.10;99.90
28460;DHT22;32528;45.712;9.192;2023-02-28T04:56:52;5.10;99.90
28460;DHT22;32528;45.712;9.192;2023-02-28T04:58:53;5.00;99.90
28460;DHT22;32528;45.712;9.192;2023-02-28T05:01:03;5.00;99.90
28460;DHT22;32528;45.712;9.192;2023-02-28T05:03:04;5.00;99.90
28460;DHT22;32528;45.712;9.192;2023-02-28T05:05:05;5.00;99.90
28460;DHT22;32528;45.712;9.192;2023-02-28T05:07:05;5.00;99.90
28460;DHT22;32528;45.712;9.192;2023-02-28T05:09:06;5.10;99.90
28460;DHT22;32528;45.712;9.192;2023-02-28T05:11:15;5.10;99.90
28460;DHT22;32528;45.712;9.192;2023-02-28T05:13:16;5.10;99.90
28460;DHT22;32528;45.712;9.192;2023-02-28T05:15:17;5.00;99.90
28460;DHT22;32528;45.712;9.192;2023-02-28T05:17:18;5.00;99.90
28460;DHT22;32528;45.712;9.192;2023-02-28T05:19:18;5.10;99.90
28460;DHT22;32528;45.712;9.192;2023-02-28T05:23:26;5.20;99.90
28460;DHT22;32528;45.712;9.192;2023-02-28T05:25:28;5.20;99.90
28460;DHT22;32528;45.712;9.192;2023-02-28T05:27:30;5.20;99.90
28460;DHT22;32528;45.712;9.192;2023-02-28T05:29:31;5.30;99.90
28460;DHT22;32528;45.712;9.192;2023-02-28T05:31:32;5.30;99.90
28460;DHT22;32528;45.712;9.192;2023-02-28T05:33:33;5.30;99.90
28460;DHT22;32528;45.712;9.192;2023-02-28T05:35:40;5.40;99.90
28460;DHT22;32528;45.712;9.192;2023-02-28T05:37:40;5.40;99.90
28460;DHT22;32528;45.712;9.192;2023-02-28T05:39:43;5.30;99.90
28460;DHT22;32528;45.712;9.192;2023-02-28T05:41:44;5.20;99.90
28460;DHT22;32528;45.712;9.192;2023-02-28T05:43:45;5.10;99.90
28460;DHT22;32528;45.712;9.192;2023-02-28T05:45:46;5.10;99.90
28460;DHT22;32528;45.712;9.192;2023-02-28T05:47:46;5.10;99.90
28460;DHT22;32528;45.712;9.192;2023-02-28T05:49:47;5.10;99.90
28460;DHT22;32528;45.712;9.192;2023-02-28T05:51:48;5.10;99.90
28460;DHT22;32528;45.712;9.192;2023-02-28T05:53:49;5.20;99.90
28460;DHT22;32528;45.712;9.192;2023-02-28T05:55:50;5.20;99.90
28460;DHT22;32528;45.712;9.192;2023-02-28T05:57:51;5.10;99.90
28460;DHT22;32528;45.712;9.192;2023-02-28T05:59:52;5.30;99.90
28460;DHT22;32528;45.712;9.192;2023-02-28T06:01:52;5.20;99.90
28460;DHT22;32528;45.712;9.192;2023-02-28T06:03:54;5.30;99.90
28460;DHT22;32528;45.712;9.192;2023-02-28T06:05:55;5.20;99.90
28460;DHT22;32528;45.712;9.192;2023-02-28T06:07:56;5.20;99.90
28460;DHT22;32528;45.712;9.192;2023-02-28T06:09:57;5.20;99.90
28460;DHT22;32528;45.712;9.192;2023-02-28T06:11:58;5.20;99.90
28460;DHT22;32528;45.712;9.192;2023-02-28T06:14:00;5.30;99.90
28460;DHT22;32528;45.712;9.192;2023-02-28T06:16:01;5.20;99.90
28460;DHT22;32528;45.712;9.192;2023-02-28T06:18:02;5.20;99.90
28460;DHT22;32528;45.712;9.192;2023-02-28T06:20:03;5.20;99.90
28460;DHT22;32528;45.712;9.192;2023-02-28T06:22:05;5.20;99.90
28460;DHT22;32528;45.712;9.192;2023-02-28T06:24:06;5.20;99.90
28460;DHT22;32528;45.712;9.192;2023-02-28T06:26:07;5.30;99.90
28460;DHT22;32528;45.712;9.192;2023-02-28T06:28:08;5.40;99.90
28460;DHT22;32528;45.712;9.192;2023-02-28T06:30:10;5.50;99.90
28460;DHT22;32528;45.712;9.192;2023-02-28T06:32:11;5.50;99.90
28460;DHT22;32528;45.712;9.192;2023-02-28T06:34:12;5.50;99.90
28460;DHT22;32528;45.712;9.192;2023-02-28T06:36:15;5.50;99.90
28460;DHT22;32528;45.712;9.192;2023-02-28T06:38:16;5.40;99.90
28460;DHT22;32528;45.712;9.192;2023-02-28T06:40:17;5.40;99.90
28460;DHT22;32528;45.712;9.192;2023-02-28T06:42:17;5.40;99.90
28460;DHT22;32528;45.712;9.192;2023-02-28T06:44:18;5.50;99.90
28460;DHT22;32528;45.712;9.192;2023-02-28T06:46:20;5.50;99.90
28460;DHT22;32528;45.712;9.192;2023-02-28T06:48:21;5.50;99.90
28460;DHT22;32528;45.712;9.192;2023-02-28T06:50:21;5.50;99.90
28460;DHT22;32528;45.712;9.192;2023-02-28T06:52:22;5.60;99.90
28460;DHT22;32528;45.712;9.192;2023-02-28T06:54:23;5.70;99.90
28460;DHT22;32528;45.712;9.192;2023-02-28T06:56:24;5.70;99.90
28460;DHT22;32528;45.712;9.192;2023-02-28T06:58:25;5.80;99.90
28460;DHT22;32528;45.712;9.192;2023-02-28T07:00:26;5.90;99.90
28460;DHT22;32528;45.712;9.192;2023-02-28T07:02:27;5.90;99.50
28460;DHT22;32528;45.712;9.192;2023-02-28T07:04:29;5.90;99.30
28460;DHT22;32528;45.712;9.192;2023-02-28T07:06:29;6.00;98.90
28460;DHT22;32528;45.712;9.192;2023-02-28T07:08:30;6.00;98.60
28460;DHT22;32528;45.712;9.192;2023-02-28T07:10:33;6.10;98.40
28460;DHT22;32528;45.712;9.192;2023-02-28T07:12:33;6.20;98.00
28460;DHT22;32528;45.712;9.192;2023-02-28T07:14:36;6.20;98.00
28460;DHT22;32528;45.712;9.192;2023-02-28T07:16:37;6.20;97.80
28460;DHT22;32528;45.712;9.192;2023-02-28T07:18:38;6.20;98.40
28460;DHT22;32528;45.712;9.192;2023-02-28T07:20:39;6.20;98.70
28460;DHT22;32528;45.712;9.192;2023-02-28T07:22:40;6.20;98.70
28460;DHT22;32528;45.712;9.192;2023-02-28T07:24:40;6.00;97.50
28460;DHT22;32528;45.712;9.192;2023-02-28T07:26:41;6.00;97.90
28460;DHT22;32528;45.712;9.192;2023-02-28T07:28:43;6.00;97.50
28460;DHT22;32528;45.712;9.192;2023-02-28T07:30:44;5.90;97.50
28460;DHT22;32528;45.712;9.192;2023-02-28T07:32:45;5.70;96.60
28460;DHT22;32528;45.712;9.192;2023-02-28T07:34:46;5.80;96.90
28460;DHT22;32528;45.712;9.192;2023-02-28T07:36:46;5.90;97.80
28460;DHT22;32528;45.712;9.192;2023-02-28T07:38:48;6.00;97.80
28460;DHT22;32528;45.712;9.192;2023-02-28T07:40:50;6.10;97.10
28460;DHT22;32528;45.712;9.192;2023-02-28T07:42:51;6.30;97.20
28460;DHT22;32528;45.712;9.192;2023-02-28T07:44:52;6.40;96.80
28460;DHT22;32528;45.712;9.192;2023-02-28T07:46:53;6.50;96.80
28460;DHT22;32528;45.712;9.192;2023-02-28T07:48:54;6.50;96.20
28460;DHT22;32528;45.712;9.192;2023-02-28T07:51:00;6.60;95.70
28460;DHT22;32528;45.712;9.192;2023-02-28T07:53:01;6.80;95.60
28460;DHT22;32528;45.712;9.192;2023-02-28T07:55:03;6.90;95.60
28460;DHT22;32528;45.712;9.192;2023-02-28T07:57:04;7.00;95.50
28460;DHT22;32528;45.712;9.192;2023-02-28T07:59:05;6.90;94.80
28460;DHT22;32528;45.712;9.192;2023-02-28T08:01:09;7.10;94.70
28460;DHT22;32528;45.712;9.192;2023-02-28T08:03:13;7.10;94.60
28460;DHT22;32528;45.712;9.192;2023-02-28T08:05:14;7.20;94.20
28460;DHT22;32528;45.712;9.192;2023-02-28T08:07:15;7.20;94.80
28460;DHT22;32528;45.712;9.192;2023-02-28T08:09:16;7.30;94.50
28460;DHT22;32528;45.712;9.192;2023-02-28T08:11:18;7.30;93.70
28460;DHT22;32528;45.712;9.192;2023-02-28T08:13:19;7.40;93.90
28460;DHT22;32528;45.712;9.192;2023-02-28T08:15:19;7.50;93.80
28460;DHT22;32528;45.712;9.192;2023-02-28T08:17:20;7.30;93.10
28460;DHT22;32528;45.712;9.192;2023-02-28T08:19:20;7.30;93.00
28460;DHT22;32528;45.712;9.192;2023-02-28T08:21:22;7.30;92.80
28460;DHT22;32528;45.712;9.192;2023-02-28T08:23:23;7.20;92.30
28460;DHT22;32528;45.712;9.192;2023-02-28T08:25:23;7.10;93.40
28460;DHT22;32528;45.712;9.192;2023-02-28T08:27:25;7.00;93.70
28460;DHT22;32528;45.712;9.192;2023-02-28T08:29:26;7.10;94.40
28460;DHT22;32528;45.712;9.192;2023-02-28T08:31:26;7.20;93.90
28460;DHT22;32528;45.712;9.192;2023-02-28T08:33:27;7.30;93.40
28460;DHT22;32528;45.712;9.192;2023-02-28T08:35:28;7.50;93.10
28460;DHT22;32528;45.712;9.192;2023-02-28T08:37:29;7.70;92.40
28460;DHT22;32528;45.712;9.192;2023-02-28T08:39:30;7.70;92.00
28460;DHT22;32528;45.712;9.192;2023-02-28T08:41:30;7.80;92.40
28460;DHT22;32528;45.712;9.192;2023-02-28T08:43:31;7.90;92.50
28460;DHT22;32528;45.712;9.192;2023-02-28T08:45:32;7.70;91.80
28460;DHT22;32528;45.712;9.192;2023-02-28T08:47:32;7.90;91.80
28460;DHT22;32528;45.712;9.192;2023-02-28T08:49:33;7.90;91.60
28460;DHT22;32528;45.712;9.192;2023-02-28T08:51:34;7.70;91.20
28460;DHT22;32528;45.712;9.192;2023-02-28T08:53:35;7.70;92.20
28460;DHT22;32528;45.712;9.192;2023-02-28T08:55:36;7.60;91.50
28460;DHT22;32528;45.712;9.192;2023-02-28T08:57:36;7.80;91.60
28460;DHT22;32528;45.712;9.192;2023-02-28T08:59:38;7.80;91.60
28460;DHT22;32528;45.712;9.192;2023-02-28T09:01:38;8.10;91.40
28460;DHT22;32528;45.712;9.192;2023-02-28T09:03:41;8.20;91.20
28460;DHT22;32528;45.712;9.192;2023-02-28T09:05:59;8.30;91.20
28460;DHT22;32528;45.712;9.192;2023-02-28T09:07:59;8.40;91.40
28460;DHT22;32528;45.712;9.192;2023-02-28T09:10:00;8.00;90.90
28460;DHT22;32528;45.712;9.192;2023-02-28T09:12:01;8.00;91.60
28460;DHT22;32528;45.712;9.192;2023-02-28T09:14:02;8.00;92.10
28460;DHT22;32528;45.712;9.192;2023-02-28T09:16:04;8.10;91.90
28460;DHT22;32528;45.712;9.192;2023-02-28T09:18:05;8.10;91.40
28460;DHT22;32528;45.712;9.192;2023-02-28T09:20:06;8.20;91.70
28460;DHT22;32528;45.712;9.192;2023-02-28T09:22:07;8.40;91.70
28460;DHT22;32528;45.712;9.192;2023-02-28T09:24:08;8.40;91.80
28460;DHT22;32528;45.712;9.192;2023-02-28T09:26:15;8.30;91.10
28460;DHT22;32528;45.712;9.192;2023-02-28T09:28:17;8.40;91.10
28460;DHT22;32528;45.712;9.192;2023-02-28T09:30:17;8.10;91.10
28460;DHT22;32528;45.712;9.192;2023-02-28T09:32:18;8.20;91.40
28460;DHT22;32528;45.712;9.192;2023-02-28T09:34:19;8.30;91.50
28460;DHT22;32528;45.712;9.192;2023-02-28T09:36:20;8.40;92.00
28460;DHT22;32528;45.712;9.192;2023-02-28T09:38:21;8.40;91.20
28460;DHT22;32528;45.712;9.192;2023-02-28T09:40:22;8.20;91.00
28460;DHT22;32528;45.712;9.192;2023-02-28T09:42:30;8.30;91.40
28460;DHT22;32528;45.712;9.192;2023-02-28T09:44:37;8.40;91.50
28460;DHT22;32528;45.712;9.192;2023-02-28T09:46:43;8.60;91.10
28460;DHT22;32528;45.712;9.192;2023-02-28T09:48:47;8.70;91.30
28460;DHT22;32528;45.712;9.192;2023-02-28T09:50:51;8.80;91.30
28460;DHT22;32528;45.712;9.192;2023-02-28T09:52:54;8.90;91.30
28460;DHT22;32528;45.712;9.192;2023-02-28T09:54:56;8.80;90.50
28460;DHT22;32528;45.712;9.192;2023-02-28T10:06:11;9.30;90.20
28460;DHT22;32528;45.712;9.192;2023-02-28T10:08:30;9.40;90.50
28460;DHT22;32528;45.712;9.192;2023-02-28T10:10:48;9.50;90.30
28460;DHT22;32528;45.712;9.192;2023-02-28T10:12:57;9.30;90.30
28460;DHT22;32528;45.712;9.192;2023-02-28T10:14:59;9.00;89.90
28460;DHT22;32528;45.712;9.192;2023-02-28T10:17:16;9.10;90.30
28460;DHT22;32528;45.712;9.192;2023-02-28T10:19:44;9.10;89.80
28460;DHT22;32528;45.712;9.192;2023-02-28T10:22:05;9.30;90.20
28460;DHT22;32528;45.712;9.192;2023-02-28T10:26:40;9.80;88.40
28460;DHT22;32528;45.712;9.192;2023-02-28T10:28:44;9.70;88.30
28460;DHT22;32528;45.712;9.192;2023-02-28T10:30:48;9.60;87.80
28460;DHT22;32528;45.712;9.192;2023-02-28T10:32:51;9.80;87.70
28460;DHT22;32528;45.712;9.192;2023-02-28T10:37:11;9.70;86.80
28460;DHT22;32528;45.712;9.192;2023-02-28T10:39:39;9.70;87.40
28460;DHT22;32528;45.712;9.192;2023-02-28T10:41:43;9.90;86.30
28460;DHT22;32528;45.712;9.192;2023-02-28T10:43:44;10.00;86.20
28460;DHT22;32528;45.712;9.192;2023-02-28T10:50:05;10.20;84.30
28460;DHT22;32528;45.712;9.192;2023-02-28T10:52:09;10.20;85.90
28460;DHT22;32528;45.712;9.192;2023-02-28T10:54:22;10.10;85.10
28460;DHT22;32528;45.712;9.192;2023-02-28T10:56:24;9.80;85.60
28460;DHT22;32528;45.712;9.192;2023-02-28T10:58:28;9.80;86.20
28460;DHT22;32528;45.712;9.192;2023-02-28T11:00:35;9.70;86.20
28460;DHT22;32528;45.712;9.192;2023-02-28T11:02:36;9.60;86.50
28460;DHT22;32528;45.712;9.192;2023-02-28T11:04:38;9.60;86.20
28460;DHT22;32528;45.712;9.192;2023-02-28T11:06:40;9.50;86.50
28460;DHT22;32528;45.712;9.192;2023-02-28T11:08:46;9.50;87.00
28460;DHT22;32528;45.712;9.192;2023-02-28T11:11:00;9.70;87.00
28460;DHT22;32528;45.712;9.192;2023-02-28T11:13:02;10.20;85.90
28460;DHT22;32528;45.712;9.192;2023-02-28T11:15:06;10.60;85.00
28460;DHT22;32528;45.712;9.192;2023-02-28T11:17:24;10.90;85.20
28460;DHT22;32528;45.712;9.192;2023-02-28T11:19:27;11.00;83.20
28460;DHT22;32528;45.712;9.192;2023-02-28T11:21:34;11.10;84.60
28460;DHT22;32528;45.712;9.192;2023-02-28T11:23:40;11.50;84.20
28460;DHT22;32528;45.712;9.192;2023-02-28T11:25:57;11.60;82.00
28460;DHT22;32528;45.712;9.192;2023-02-28T11:28:00;11.50;81.30
28460;DHT22;32528;45.712;9.192;2023-02-28T11:30:03;11.50;81.30
28460;DHT22;32528;45.712;9.192;2023-02-28T11:32:15;11.60;81.40
28460;DHT22;32528;45.712;9.192;2023-02-28T11:34:26;11.50;81.10
28460;DHT22;32528;45.712;9.192;2023-02-28T11:36:31;11.30;81.80
28460;DHT22;32528;45.712;9.192;2023-02-28T11:38:34;10.90;82.10
28460;DHT22;32528;45.712;9.192;2023-02-28T11:43:19;10.50;83.50
28460;DHT22;32528;45.712;9.192;2023-02-28T11:52:24;10.80;84.00
28460;DHT22;32528;45.712;9.192;2023-02-28T11:56:59;10.90;82.60
28460;DHT22;32528;45.712;9.192;2023-02-28T12:01:07;10.90;83.70
28460;DHT22;32528;45.712;9.192;2023-02-28T12:05:41;11.30;82.90
28460;DHT22;32528;45.712;9.192;2023-02-28T12:07:58;11.40;82.80
28460;DHT22;32528;45.712;9.192;2023-02-28T12:16:40;11.00;83.20
28460;DHT22;32528;45.712;9.192;2023-02-28T12:19:12;11.10;82.90
28460;DHT22;32528;45.712;9.192;2023-02-28T12:23:46;11.50;81.40
28460;DHT22;32528;45.712;9.192;2023-02-28T12:26:18;11.60;80.30
28460;DHT22;32528;45.712;9.192;2023-02-28T12:28:25;11.70;79.60
28460;DHT22;32528;45.712;9.192;2023-02-28T12:30:35;11.50;79.70
28460;DHT22;32528;45.712;9.192;2023-02-28T12:32:54;11.50;79.40
28460;DHT22;32528;45.712;9.192;2023-02-28T12:35:02;11.80;79.90
28460;DHT22;32528;45.712;9.192;2023-02-28T12:37:10;11.90;80.60
28460;DHT22;32528;45.712;9.192;2023-02-28T12:39:28;12.20;79.30
28460;DHT22;32528;45.712;9.192;2023-02-28T12:41:51;12.40;78.70
28460;DHT22;32528;45.712;9.192;2023-02-28T12:44:00;12.50;77.40
28460;DHT22;32528;45.712;9.192;2023-02-28T12:46:12;12.40;77.20
28460;DHT22;32528;45.712;9.192;2023-02-28T12:50:27;12.70;77.60
28460;DHT22;32528;45.712;9.192;2023-02-28T12:54:57;12.80;77.50
28460;DHT22;32528;45.712;9.192;2023-02-28T12:57:12;12.80;77.80
28460;DHT22;32528;45.712;9.192;2023-02-28T12:59:45;12.90;77.70
28460;DHT22;32528;45.712;9.192;2023-02-28T13:05:10;11.60;77.60
28460;DHT22;32528;45.712;9.192;2023-02-28T13:09:21;11.50;78.90
28460;DHT22;32528;45.712;9.192;2023-02-28T13:11:44;11.20;79.00
28460;DHT22;32528;45.712;9.192;2023-02-28T13:13:45;11.20;80.40
28460;DHT22;32528;45.712;9.192;2023-02-28T13:16:05;11.20;80.00
28460;DHT22;32528;45.712;9.192;2023-02-28T13:18:33;11.20;80.10
28460;DHT22;32528;45.712;9.192;2023-02-28T13:20:47;11.30;80.50
28460;DHT22;32528;45.712;9.192;2023-02-28T13:22:51;11.20;80.60
28460;DHT22;32528;45.712;9.192;2023-02-28T13:24:55;11.10;81.00
28460;DHT22;32528;45.712;9.192;2023-02-28T13:31:11;11.00;80.00
28460;DHT22;32528;45.712;9.192;2023-02-28T13:33:30;10.90;81.20
28460;DHT22;32528;45.712;9.192;2023-02-28T13:35:36;10.90;81.10
28460;DHT22;32528;45.712;9.192;2023-02-28T13:37:43;10.90;80.90
28460;DHT22;32528;45.712;9.192;2023-02-28T13:39:47;10.90;80.10
28460;DHT22;32528;45.712;9.192;2023-02-28T13:41:48;11.00;78.20
28460;DHT22;32528;45.712;9.192;2023-02-28T13:46:11;11.00;78.90
28460;DHT22;32528;45.712;9.192;2023-02-28T13:48:23;11.10;79.30
28460;DHT22;32528;45.712;9.192;2023-02-28T13:52:27;11.10;80.70
28460;DHT22;32528;45.712;9.192;2023-02-28T13:54:31;11.30;79.80
28460;DHT22;32528;45.712;9.192;2023-02-28T13:56:49;11.40;78.40
28460;DHT22;32528;45.712;9.192;2023-02-28T13:59:16;11.50;79.20
28460;DHT22;32528;45.712;9.192;2023-02-28T14:08:20;11.50;78.30
28460;DHT22;32528;45.712;9.192;2023-02-28T14:10:29;11.60;78.00
28460;DHT22;32528;45.712;9.192;2023-02-28T14:17:40;11.80;77.80
28460;DHT22;32528;45.712;9.192;2023-02-28T14:19:45;11.90;78.20
28460;DHT22;32528;45.712;9.192;2023-02-28T14:22:16;11.90;78.80
28460;DHT22;32528;45.712;9.192;2023-02-28T14:36:14;12.00;78.40
28460;DHT22;32528;45.712;9.192;2023-02-28T14:38:28;12.10;79.10
28460;DHT22;32528;45.712;9.192;2023-02-28T14:40:33;12.20;77.70
28460;DHT22;32528;45.712;9.192;2023-02-28T14:42:37;12.20;76.90
28460;DHT22;32528;45.712;9.192;2023-02-28T14:44:55;12.30;75.70
28460;DHT22;32528;45.712;9.192;2023-02-28T14:47:01;12.30;74.90
28460;DHT22;32528;45.712;9.192;2023-02-28T14:49:13;12.20;75.10
28460;DHT22;32528;45.712;9.192;2023-02-28T14:51:23;12.30;75.70
28460;DHT22;32528;45.712;9.192;2023-02-28T14:53:28;12.30;76.80
28460;DHT22;32528;45.712;9.192;2023-02-28T14:55:35;12.30;75.80
28460;DHT22;32528;45.712;9.192;2023-02-28T14:57:41;12.20;75.30
28460;DHT22;32528;45.712;9.192;2023-02-28T15:00:15;12.40;75.30
28460;DHT22;32528;45.712;9.192;2023-02-28T15:02:18;12.30;75.10
28460;DHT22;32528;45.712;9.192;2023-02-28T15:04:26;12.40;74.20
28460;DHT22;32528;45.712;9.192;2023-02-28T15:06:33;12.50;74.00
28460;DHT22;32528;45.712;9.192;2023-02-28T15:08:34;12.50;74.60
28460;DHT22;32528;45.712;9.192;2023-02-28T15:10:38;12.60;74.50
28460;DHT22;32528;45.712;9.192;2023-02-28T15:12:55;12.30;73.20
28460;DHT22;32528;45.712;9.192;2023-02-28T15:14:56;12.10;73.00
28460;DHT22;32528;45.712;9.192;2023-02-28T15:17:02;11.90;74.00